createdAt,value
2022-12-03T00:00:58.336Z,70.19
2022-12-03T00:03:29.404Z,69.90
2022-12-03T00:05:59.697Z,69.57
2022-12-03T00:08:33.507Z,69.82
2022-12-03T00:11:03.625Z,70.21
2022-12-03T00:13:33.704Z,70.26
2022-12-03T00:16:06.717Z,69.96
2022-12-03T00:18:36.901Z,70.15
2022-12-03T00:21:07.246Z,70.32
2022-12-03T00:23:42.102Z,70.20
2022-12-03T00:26:12.515Z,70.57
2022-12-03T00:28:42.539Z,70.49
2022-12-03T00:31:15.316Z,70.27
2022-12-03T00:33:45.605Z,69.70
2022-12-03T00:36:15.679Z,69.49
2022-12-03T00:38:46.883Z,68.93
2022-12-03T00:41:16.974Z,68.87
2022-12-03T00:43:47.110Z,69.20
2022-12-03T00:46:21.560Z,68.95
2022-12-03T00:48:51.960Z,68.82
2022-12-03T00:51:22.534Z,69.13
2022-12-03T00:53:55.937Z,69.01
2022-12-03T00:56:26.050Z,68.91
2022-12-03T00:58:56.223Z,68.82
2022-12-03T01:01:28.999Z,68.19
2022-12-03T01:03:59.345Z,68.06
2022-12-03T01:06:29.452Z,68.37
2022-12-03T01:08:59.529Z,67.92
2022-12-03T01:11:41.976Z,67.70
2022-12-03T01:14:14.707Z,68.05
2022-12-03T01:16:47.765Z,68.20
2022-12-03T01:19:19.534Z,67.97
2022-12-03T01:21:51.564Z,68.30
2022-12-03T01:24:22.949Z,67.93
2022-12-03T01:26:53.059Z,67.92
2022-12-03T01:29:23.036Z,68.18
2022-12-03T01:32:08.106Z,67.83
2022-12-03T01:34:38.138Z,67.55
2022-12-03T01:37:08.216Z,68.10
2022-12-03T01:39:38.642Z,67.20
2022-12-03T01:42:10.923Z,67.07
2022-12-03T01:44:42.612Z,67.27
2022-12-03T01:47:19.596Z,67.48
2022-12-03T01:49:55.488Z,67.78
2022-12-03T01:52:28.220Z,67.32
2022-12-03T01:55:01.013Z,67.46
2022-12-03T01:57:43.788Z,66.94
2022-12-03T02:00:17.086Z,66.58
2022-12-03T02:02:51.156Z,66.85
2022-12-03T02:05:23.451Z,66.87
2022-12-03T02:07:53.816Z,66.69
2022-12-03T02:10:34.054Z,67.29
2022-12-03T02:13:06.697Z,66.96
2022-12-03T02:15:37.377Z,67.05
2022-12-03T02:18:11.683Z,67.26
2022-12-03T02:20:48.951Z,66.88
2022-12-03T02:23:29.329Z,66.74
2022-12-03T02:26:02.068Z,66.83
2022-12-03T02:28:32.143Z,66.46
2022-12-03T02:31:02.291Z,66.29
2022-12-03T02:33:32.280Z,66.47
2022-12-03T02:36:04.072Z,66.63
2022-12-03T02:38:37.039Z,66.50
2022-12-03T02:41:32.085Z,66.92
2022-12-03T02:43:59.554Z,66.51
2022-12-03T02:46:29.727Z,66.62
2022-12-03T02:49:00.588Z,66.96
2022-12-03T02:51:30.755Z,66.67
2022-12-03T02:54:01.712Z,66.82
2022-12-03T02:56:35.980Z,66.61
2022-12-03T02:59:08.377Z,66.98
2022-12-03T03:01:38.515Z,66.90
2022-12-03T03:04:09.371Z,66.58
2022-12-03T03:06:39.405Z,66.61
2022-12-03T03:09:09.723Z,67.05
2022-12-03T03:11:42.708Z,67.07
2022-12-03T03:14:12.828Z,67.04
2022-12-03T03:16:42.979Z,67.00
2022-12-03T03:19:13.314Z,67.10
2022-12-03T03:21:43.339Z,66.83
2022-12-03T03:24:13.416Z,66.78
2022-12-03T03:26:46.224Z,66.32
2022-12-03T03:29:16.759Z,66.43
2022-12-03T03:31:48.826Z,66.83
2022-12-03T03:34:19.539Z,66.44
2022-12-03T03:36:49.768Z,66.59
2022-12-03T03:39:20.173Z,66.63
2022-12-03T03:41:52.882Z,66.34
2022-12-03T03:44:22.998Z,66.43
2022-12-03T03:46:53.126Z,66.56
2022-12-03T03:49:23.547Z,66.47
2022-12-03T03:51:53.856Z,66.63
2022-12-03T03:54:24.640Z,66.55
2022-12-03T03:56:57.515Z,66.48
2022-12-03T03:59:27.636Z,66.90
2022-12-03T04:01:57.918Z,66.69
2022-12-03T04:04:29.271Z,66.19
2022-12-03T04:06:59.371Z,66.26
2022-12-03T04:09:29.595Z,66.45
2022-12-03T04:12:14.653Z,66.06
2022-12-03T04:14:44.740Z,66.11
2022-12-03T04:17:14.879Z,65.93
2022-12-03T04:19:45.114Z,66.18
2022-12-03T04:22:27.548Z,67.10
2022-12-03T04:25:18.028Z,67.37
2022-12-03T04:28:14.967Z,67.11
2022-12-03T04:30:45.203Z,67.58
2022-12-03T04:33:27.415Z,67.99
2022-12-03T04:35:57.533Z,68.32
2022-12-03T04:38:28.228Z,68.40
2022-12-03T04:41:04.500Z,68.63
2022-12-03T04:43:57.869Z,69.06
2022-12-03T04:46:27.906Z,68.63
2022-12-03T04:48:59.419Z,68.96
2022-12-03T04:51:29.473Z,69.40
2022-12-03T04:53:59.581Z,68.96
2022-12-03T04:56:29.536Z,69.31
2022-12-03T04:59:02.346Z,69.63
2022-12-03T05:01:32.588Z,69.33
2022-12-03T05:04:02.803Z,69.46
2022-12-03T05:06:32.949Z,70.01
2022-12-03T05:09:02.996Z,69.77
2022-12-03T05:11:33.185Z,70.10
2022-12-03T05:14:06.180Z,70.13
2022-12-03T05:16:36.249Z,70.12
2022-12-03T05:19:07.882Z,70.45
2022-12-03T05:21:35.816Z,70.37
2022-12-03T05:24:06.071Z,71.06
2022-12-03T05:26:36.193Z,70.89
2022-12-03T05:29:08.894Z,70.92
2022-12-03T05:31:38.915Z,71.31
2022-12-03T05:34:08.940Z,71.42
2022-12-03T05:36:38.950Z,71.76
2022-12-03T05:39:12.842Z,71.39
2022-12-03T05:41:55.163Z,71.56
2022-12-03T05:44:27.813Z,72.06
2022-12-03T05:46:57.899Z,72.14
2022-12-03T05:49:27.956Z,71.78
2022-12-03T05:51:58.858Z,72.09
2022-12-03T05:54:29.121Z,72.28
2022-12-03T05:56:59.260Z,72.72
2022-12-03T05:59:32.010Z,72.82
2022-12-03T06:02:02.088Z,72.86
2022-12-03T06:04:32.181Z,72.70
2022-12-03T06:07:02.225Z,73.03
2022-12-03T06:09:32.351Z,73.23
2022-12-03T06:12:02.435Z,73.05
2022-12-03T06:14:35.859Z,73.12
2022-12-03T06:17:05.946Z,73.56
2022-12-03T06:19:36.174Z,73.42
2022-12-03T06:22:06.242Z,73.85
2022-12-03T06:24:36.354Z,73.48
2022-12-03T06:27:06.580Z,73.89
2022-12-03T06:29:39.396Z,73.83
2022-12-03T06:32:09.841Z,74.08
2022-12-03T06:34:40.245Z,73.79
2022-12-03T06:37:10.350Z,73.84
2022-12-03T06:39:40.359Z,74.17
2022-12-03T06:42:10.475Z,74.19
2022-12-03T06:44:43.181Z,73.62
2022-12-03T06:47:13.236Z,73.92
2022-12-03T06:49:43.347Z,73.57
2022-12-03T06:52:13.439Z,73.85
2022-12-03T06:54:43.483Z,73.68
2022-12-03T06:57:13.547Z,73.72
2022-12-03T06:59:46.166Z,73.23
2022-12-03T07:02:16.397Z,72.36
2022-12-03T07:04:46.681Z,72.25
2022-12-03T07:07:17.243Z,71.90
2022-12-03T07:09:47.356Z,71.92
2022-12-03T07:12:17.480Z,71.52
2022-12-03T07:14:50.307Z,70.86
2022-12-03T07:17:20.380Z,70.52
2022-12-03T07:19:50.457Z,70.16
2022-12-03T07:22:20.591Z,69.75
2022-12-03T07:24:50.860Z,69.80
2022-12-03T07:27:21.285Z,69.42
2022-12-03T07:29:54.035Z,69.12
2022-12-03T07:32:26.521Z,68.35
2022-12-03T07:34:56.732Z,67.79
2022-12-03T07:37:27.002Z,67.53
2022-12-03T07:39:57.079Z,67.32
2022-12-03T07:42:27.788Z,67.10
2022-12-03T07:45:00.477Z,66.57
2022-12-03T07:47:30.629Z,66.50
2022-12-03T07:50:00.694Z,66.50
2022-12-03T07:52:30.998Z,66.06
2022-12-03T07:55:01.128Z,66.18
2022-12-03T07:57:31.300Z,65.69
2022-12-03T08:00:05.443Z,65.11
2022-12-03T08:02:35.660Z,64.45
2022-12-03T08:05:05.857Z,64.24
2022-12-03T08:07:36.025Z,63.08
2022-12-03T08:10:07.209Z,63.49
2022-12-03T08:12:42.807Z,62.75
2022-12-03T08:15:18.616Z,62.70
2022-12-03T08:17:54.061Z,62.41
2022-12-03T08:20:26.423Z,61.82
2022-12-03T08:22:59.780Z,61.66
2022-12-03T08:25:31.901Z,61.08
2022-12-03T08:28:10.914Z,61.57
2022-12-03T08:30:43.770Z,61.54
2022-12-03T08:33:20.734Z,60.52
2022-12-03T08:35:53.642Z,60.49
2022-12-03T08:38:26.126Z,60.05
2022-12-03T08:40:58.073Z,59.89
2022-12-03T08:43:29.981Z,60.04
2022-12-03T08:46:02.834Z,59.82
2022-12-03T08:48:37.763Z,60.00
2022-12-03T08:51:15.842Z,59.42
2022-12-03T08:53:49.004Z,60.36
2022-12-03T08:56:27.020Z,60.27
2022-12-03T08:59:00.822Z,60.43
2022-12-03T09:01:42.194Z,60.63
2022-12-03T09:04:28.182Z,60.69
2022-12-03T09:06:59.279Z,61.22
2022-12-03T09:09:30.444Z,61.04
2022-12-03T09:12:02.274Z,61.18
2022-12-03T09:14:32.979Z,60.81
2022-12-03T09:17:05.975Z,61.13
2022-12-03T09:19:38.984Z,61.02
2022-12-03T09:22:11.650Z,60.62
2022-12-03T09:24:42.627Z,60.91
2022-12-03T09:27:13.039Z,60.48
2022-12-03T09:29:43.368Z,60.84
2022-12-03T09:32:18.626Z,60.66
2022-12-03T09:34:49.091Z,60.12
2022-12-03T09:37:19.299Z,59.92
2022-12-03T09:39:49.463Z,59.79
2022-12-03T09:42:20.128Z,59.18
2022-12-03T09:44:50.223Z,58.72
2022-12-03T09:47:23.639Z,58.39
2022-12-03T09:49:54.708Z,57.45
2022-12-03T09:52:27.648Z,57.63
2022-12-03T09:54:58.520Z,57.42
2022-12-03T09:57:28.750Z,57.45
2022-12-03T09:59:59.049Z,57.50
2022-12-03T10:02:34.432Z,57.43
2022-12-03T10:05:04.674Z,56.41
2022-12-03T10:07:34.922Z,55.80
2022-12-03T10:10:05.064Z,56.66
2022-12-03T10:12:35.161Z,56.34
2022-12-03T10:15:05.407Z,56.62
2022-12-03T10:17:38.152Z,55.78
2022-12-03T10:20:10.718Z,56.20
2022-12-03T10:22:40.901Z,56.20
2022-12-03T10:25:13.129Z,56.01
2022-12-03T10:27:44.471Z,56.33
2022-12-03T10:30:19.791Z,56.60
2022-12-03T10:32:53.999Z,56.19
2022-12-03T10:35:26.754Z,56.67
2022-12-03T10:38:03.271Z,57.15
2022-12-03T10:40:35.358Z,56.66
2022-12-03T10:43:24.495Z,56.86
2022-12-03T10:46:14.137Z,57.32
2022-12-03T10:49:13.494Z,56.58
2022-12-03T10:51:43.739Z,56.64
2022-12-03T10:54:21.389Z,56.61
2022-12-03T10:56:55.185Z,56.60
2022-12-03T10:59:28.024Z,56.75
2022-12-03T11:01:58.476Z,56.54
2022-12-03T11:04:35.191Z,56.78
2022-12-03T11:07:06.208Z,56.38
2022-12-03T11:09:37.288Z,56.30
2022-12-03T11:12:08.914Z,56.68
2022-12-03T11:15:10.493Z,56.59
2022-12-03T11:17:49.487Z,55.56
2022-12-03T11:21:01.295Z,56.04
2022-12-03T11:24:01.356Z,55.05
2022-12-03T11:27:01.330Z,55.09
2022-12-03T11:29:53.409Z,55.57
2022-12-03T11:33:02.868Z,55.06
2022-12-03T11:35:40.281Z,54.83
2022-12-03T11:38:52.250Z,55.05
2022-12-03T11:41:25.465Z,54.70
2022-12-03T11:44:34.257Z,54.00
2022-12-03T11:47:16.913Z,54.16
2022-12-03T11:49:51.962Z,54.14
2022-12-03T11:52:28.553Z,53.83
2022-12-03T11:55:04.405Z,54.65
2022-12-03T11:57:40.519Z,54.27
2022-12-03T12:00:23.444Z,54.47
2022-12-03T12:02:58.259Z,54.63
2022-12-03T12:05:32.626Z,54.79
2022-12-03T12:08:04.261Z,53.59
2022-12-03T12:10:55.421Z,54.18
2022-12-03T12:13:29.933Z,54.14
2022-12-03T12:16:00.107Z,54.01
2022-12-03T12:18:43.947Z,54.10
2022-12-03T12:21:41.960Z,54.85
2022-12-03T12:24:36.059Z,54.94
2022-12-03T12:27:09.542Z,54.83
2022-12-03T12:29:40.543Z,54.85
2022-12-03T12:32:17.563Z,54.55
2022-12-03T12:34:52.609Z,54.80
2022-12-03T12:37:24.380Z,55.08
2022-12-03T12:39:58.920Z,55.09
2022-12-03T12:42:37.810Z,54.82
2022-12-03T12:45:19.070Z,54.81
2022-12-03T12:48:03.292Z,54.81
2022-12-03T12:50:36.572Z,54.52
2022-12-03T12:53:14.264Z,55.14
2022-12-03T12:55:44.409Z,55.88
2022-12-03T12:58:18.598Z,55.95
2022-12-03T13:00:49.382Z,56.22
2022-12-03T13:03:20.764Z,55.71
2022-12-03T13:05:55.152Z,56.52
2022-12-03T13:08:30.183Z,56.43
2022-12-03T13:11:01.437Z,56.68
2022-12-03T13:13:43.910Z,56.35
2022-12-03T13:16:21.007Z,56.36
2022-12-03T13:18:52.506Z,56.67
2022-12-03T13:21:28.588Z,56.95
2022-12-03T13:24:00.184Z,57.00
2022-12-03T13:26:41.394Z,57.30
2022-12-03T13:29:17.829Z,57.64
2022-12-03T13:31:54.715Z,57.61
2022-12-03T13:34:27.536Z,57.63
2022-12-03T13:37:00.364Z,57.70
2022-12-03T13:39:35.273Z,58.11
2022-12-03T13:42:33.026Z,58.38
2022-12-03T13:45:04.614Z,58.82
2022-12-03T13:47:35.227Z,58.31
2022-12-03T13:50:13.424Z,58.76
2022-12-03T13:52:46.109Z,58.38
2022-12-03T13:55:18.381Z,59.18
2022-12-03T13:57:48.608Z,58.82
2022-12-03T14:00:19.119Z,58.96
2022-12-03T14:02:49.868Z,59.37
2022-12-03T14:05:20.192Z,59.47
2022-12-03T14:07:58.171Z,59.39
2022-12-03T14:10:33.796Z,59.59
2022-12-03T14:13:18.938Z,59.87
2022-12-03T14:15:48.967Z,59.63
2022-12-03T14:18:19.141Z,60.30
2022-12-03T14:20:49.477Z,60.51
2022-12-03T14:23:22.253Z,60.18
2022-12-03T14:25:52.281Z,60.76
2022-12-03T14:28:22.499Z,60.70
2022-12-03T14:30:52.519Z,61.31
2022-12-03T14:33:22.571Z,61.22
2022-12-03T14:35:54.416Z,61.52
2022-12-03T14:38:27.228Z,62.16
2022-12-03T14:40:57.312Z,62.38
2022-12-03T14:43:27.368Z,62.48
2022-12-03T14:45:57.526Z,62.38
2022-12-03T14:48:28.300Z,62.79
2022-12-03T14:50:58.340Z,63.40
2022-12-03T14:53:31.196Z,63.27
2022-12-03T14:56:01.273Z,63.78
2022-12-03T14:58:31.433Z,64.46
2022-12-03T15:01:01.614Z,64.23
2022-12-03T15:03:31.709Z,64.25
2022-12-03T15:06:02.412Z,64.75
2022-12-03T15:08:35.094Z,64.83
2022-12-03T15:11:07.714Z,65.38
2022-12-03T15:13:37.814Z,65.86
2022-12-03T15:16:08.726Z,65.90
2022-12-03T15:18:38.808Z,65.95
2022-12-03T15:21:09.258Z,66.07
2022-12-03T15:23:42.201Z,66.58
2022-12-03T15:26:12.364Z,66.62
2022-12-03T15:28:47.921Z,67.02
2022-12-03T15:31:18.462Z,67.45
2022-12-03T15:33:50.097Z,67.53
2022-12-03T15:36:20.213Z,67.47
2022-12-03T15:38:53.003Z,67.66
2022-12-03T15:41:24.946Z,68.26
2022-12-03T15:43:55.620Z,68.12
2022-12-03T15:46:27.819Z,68.39
2022-12-03T15:48:58.669Z,68.85
2022-12-03T15:51:28.849Z,68.62
2022-12-03T15:54:01.500Z,69.21
2022-12-03T15:56:31.564Z,69.05
2022-12-03T15:59:01.719Z,68.87
2022-12-03T16:01:31.860Z,68.85
2022-12-03T16:04:01.990Z,68.50
2022-12-03T16:06:32.016Z,69.08
2022-12-03T16:09:04.716Z,68.86
2022-12-03T16:11:34.784Z,69.15
2022-12-03T16:14:04.923Z,69.48
2022-12-03T16:16:35.036Z,69.53
2022-12-03T16:19:05.663Z,69.53
2022-12-03T16:21:35.925Z,69.55
2022-12-03T16:24:09.100Z,69.18
2022-12-03T16:26:39.292Z,69.52
2022-12-03T16:29:12.159Z,69.79
2022-12-03T16:31:42.241Z,69.84
2022-12-03T16:34:12.426Z,70.00
2022-12-03T16:36:42.593Z,70.15
2022-12-03T16:39:16.569Z,69.92
2022-12-03T16:41:46.843Z,70.03
2022-12-03T16:44:30.619Z,70.49
2022-12-03T16:47:01.630Z,70.76
2022-12-03T16:49:31.803Z,70.78
2022-12-03T16:52:01.878Z,70.40
2022-12-03T16:54:34.468Z,70.34
2022-12-03T16:57:04.474Z,70.95
2022-12-03T16:59:34.928Z,71.01
2022-12-03T17:02:05.146Z,70.87
2022-12-03T17:04:35.361Z,71.06
2022-12-03T17:07:05.454Z,70.99
2022-12-03T17:09:39.655Z,71.53
2022-12-03T17:12:10.500Z,71.63
2022-12-03T17:14:48.976Z,71.34
2022-12-03T17:17:19.238Z,71.66
2022-12-03T17:19:50.483Z,71.75
2022-12-03T17:22:20.596Z,71.68
2022-12-03T17:24:55.448Z,71.85
2022-12-03T17:27:25.891Z,72.01
2022-12-03T17:29:56.283Z,72.62
2022-12-03T17:32:26.575Z,72.28
2022-12-03T17:34:56.605Z,72.93
2022-12-03T17:37:26.797Z,72.67
2022-12-03T17:39:59.457Z,73.13
2022-12-03T17:42:29.687Z,73.08
2022-12-03T17:44:59.861Z,73.01
2022-12-03T17:47:29.949Z,73.16
2022-12-03T17:50:00.328Z,73.26
2022-12-03T17:52:30.467Z,73.04
2022-12-03T17:55:15.793Z,73.36
2022-12-03T17:57:50.492Z,73.03
2022-12-03T18:00:21.143Z,73.12
2022-12-03T18:02:51.203Z,72.82
2022-12-03T18:05:21.238Z,73.07
2022-12-03T18:07:51.449Z,72.95
2022-12-03T18:10:24.160Z,73.42
2022-12-03T18:12:59.835Z,73.04
2022-12-03T18:15:31.708Z,73.17
2022-12-03T18:18:01.815Z,73.57
2022-12-03T18:20:32.227Z,73.84
2022-12-03T18:23:02.551Z,73.85
2022-12-03T18:25:35.383Z,73.83
2022-12-03T18:28:05.452Z,74.19
2022-12-03T18:30:35.649Z,74.90
2022-12-03T18:33:05.902Z,74.99
2022-12-03T18:35:36.107Z,74.77
2022-12-03T18:38:06.488Z,74.96
2022-12-03T18:40:39.733Z,74.94
2022-12-03T18:43:14.511Z,74.41
2022-12-03T18:45:45.046Z,74.83
2022-12-03T18:48:16.133Z,74.56
2022-12-03T18:50:46.640Z,74.60
2022-12-03T18:53:18.769Z,74.67
2022-12-03T18:55:51.598Z,74.67
2022-12-03T18:58:21.680Z,74.72
2022-12-03T19:00:51.841Z,74.97
2022-12-03T19:03:22.188Z,74.72
2022-12-03T19:05:52.451Z,74.36
2022-12-03T19:08:22.600Z,74.43
2022-12-03T19:11:01.791Z,73.99
2022-12-03T19:13:31.944Z,74.46
2022-12-03T19:16:04.960Z,74.40
2022-12-03T19:18:35.115Z,74.26
2022-12-03T19:21:09.621Z,74.48
2022-12-03T19:23:40.353Z,74.30
2022-12-03T19:26:14.079Z,74.11
2022-12-03T19:28:44.991Z,74.35
2022-12-03T19:31:17.278Z,74.51
2022-12-03T19:33:48.455Z,74.78
2022-12-03T19:36:24.401Z,74.48
2022-12-03T19:38:57.303Z,74.51
2022-12-03T19:41:33.463Z,74.25
2022-12-03T19:44:09.256Z,74.29
2022-12-03T19:46:41.003Z,74.42
2022-12-03T19:49:11.485Z,74.35
2022-12-03T19:51:41.546Z,74.60
2022-12-03T19:54:14.663Z,74.75
2022-12-03T19:56:47.490Z,74.28
2022-12-03T19:59:17.647Z,74.16
2022-12-03T20:01:47.955Z,73.88
2022-12-03T20:04:18.072Z,73.50
2022-12-03T20:06:48.444Z,73.08
2022-12-03T20:09:21.281Z,72.95
2022-12-03T20:11:55.543Z,72.96
2022-12-03T20:14:25.795Z,72.58
2022-12-03T20:17:00.921Z,72.90
2022-12-03T20:19:31.072Z,72.73
2022-12-03T20:22:03.021Z,72.74
2022-12-03T20:24:33.245Z,72.58
2022-12-03T20:27:06.086Z,73.00
2022-12-03T20:29:36.310Z,73.48
2022-12-03T20:32:07.158Z,74.00
2022-12-03T20:34:38.217Z,73.55
2022-12-03T20:37:08.315Z,73.35
2022-12-03T20:39:38.370Z,73.32
2022-12-03T20:42:11.613Z,73.61
2022-12-03T20:44:41.685Z,73.93
2022-12-03T20:47:11.844Z,73.62
2022-12-03T20:49:42.095Z,73.55
2022-12-03T20:52:12.136Z,73.98
2022-12-03T20:54:42.123Z,73.62
2022-12-03T20:57:14.846Z,73.63
2022-12-03T20:59:45.027Z,74.15
2022-12-03T21:02:15.235Z,74.26
2022-12-03T21:04:45.440Z,74.42
2022-12-03T21:07:15.620Z,74.13
2022-12-03T21:09:45.723Z,73.80
2022-12-03T21:12:18.376Z,73.93
2022-12-03T21:14:48.743Z,74.30
2022-12-03T21:17:19.028Z,74.17
2022-12-03T21:19:49.699Z,74.25
2022-12-03T21:22:19.761Z,74.22
2022-12-03T21:24:52.129Z,74.74
2022-12-03T21:27:24.881Z,74.88
2022-12-03T21:29:55.377Z,75.04
2022-12-03T21:32:25.752Z,74.81
2022-12-03T21:34:55.824Z,75.06
2022-12-03T21:37:25.877Z,75.22
2022-12-03T21:39:56.038Z,74.90
2022-12-03T21:42:35.893Z,75.17
2022-12-03T21:45:08.358Z,75.62
2022-12-03T21:47:38.513Z,75.42
2022-12-03T21:50:12.353Z,75.84
2022-12-03T21:52:42.425Z,75.52
2022-12-03T21:55:13.227Z,75.94
2022-12-03T21:57:51.296Z,75.99
2022-12-03T22:00:21.939Z,75.77
2022-12-03T22:02:52.534Z,76.21
2022-12-03T22:05:22.791Z,75.90
2022-12-03T22:07:53.023Z,75.91
2022-12-03T22:10:23.443Z,76.40
2022-12-03T22:12:57.168Z,76.13
2022-12-03T22:15:27.199Z,76.40
2022-12-03T22:19:41.067Z,76.28
2022-12-03T22:22:11.633Z,76.54
2022-12-03T22:24:42.064Z,76.56
2022-12-03T22:27:12.230Z,76.65
2022-12-03T22:29:42.328Z,77.19
2022-12-03T22:32:12.440Z,77.24
2022-12-03T22:34:45.472Z,77.20
2022-12-03T22:37:15.590Z,77.58
2022-12-03T22:39:45.727Z,77.87
2022-12-03T22:42:15.926Z,77.71
2022-12-03T22:44:46.000Z,77.46
2022-12-03T22:47:16.143Z,77.02
2022-12-03T22:49:48.851Z,77.09
2022-12-03T22:52:19.112Z,76.90
2022-12-03T22:54:49.219Z,77.29
2022-12-03T22:57:19.426Z,77.20
2022-12-03T22:59:49.908Z,77.52
2022-12-03T23:02:20.663Z,77.61
2022-12-03T23:04:53.534Z,77.21
2022-12-03T23:07:23.542Z,76.88
2022-12-03T23:09:54.427Z,77.42
2022-12-03T23:12:24.903Z,77.57
2022-12-03T23:14:57.605Z,76.96
2022-12-03T23:17:28.660Z,76.81
2022-12-03T23:20:01.758Z,77.19
2022-12-03T23:22:31.861Z,76.96
2022-12-03T23:25:01.880Z,76.83
2022-12-03T23:27:32.022Z,76.80
2022-12-03T23:30:02.427Z,76.98
2022-12-03T23:32:33.344Z,76.81
2022-12-03T23:35:06.952Z,77.45
2022-12-03T23:37:39.805Z,77.62
2022-12-03T23:40:11.372Z,77.55
2022-12-03T23:42:41.467Z,77.12
2022-12-03T23:45:12.680Z,77.22
2022-12-03T23:47:42.809Z,77.02
2022-12-03T23:50:16.062Z,76.99
2022-12-03T23:52:46.252Z,76.85
2022-12-03T23:55:16.367Z,76.52
2022-12-03T23:57:46.459Z,76.85
